createdAt,value
2023-02-06T00:00:29.305Z,42.70
2023-02-06T00:01:29.291Z,43.18
2023-02-06T00:04:49.744Z,43.34
2023-02-06T00:05:49.774Z,43.99
2023-02-06T00:06:49.726Z,42.86
2023-02-06T00:07:49.714Z,46.73
2023-02-06T00:08:49.706Z,43.67
2023-02-06T00:09:49.690Z,45.76
2023-02-06T00:10:49.689Z,41.09
2023-02-06T00:11:49.670Z,41.73
2023-02-06T00:12:49.658Z,44.79
2023-02-06T00:13:49.681Z,41.41
2023-02-06T00:14:49.636Z,42.70
2023-02-06T00:15:49.676Z,40.93
2023-02-06T00:16:49.612Z,41.09
2023-02-06T00:17:49.601Z,40.77
2023-02-06T00:18:49.614Z,41.41
2023-02-06T00:19:49.582Z,40.44
2023-02-06T00:20:49.568Z,40.93
2023-02-06T00:21:49.562Z,40.77
2023-02-06T00:22:49.543Z,40.77
2023-02-06T00:23:49.552Z,42.22
2023-02-06T00:24:49.529Z,42.22
2023-02-06T00:25:49.526Z,42.22
2023-02-06T00:26:49.498Z,43.51
2023-02-06T00:27:49.524Z,43.83
2023-02-06T00:28:49.489Z,42.86
2023-02-06T00:29:49.468Z,40.77
2023-02-06T00:30:49.477Z,41.41
2023-02-06T00:31:49.543Z,43.02
2023-02-06T00:32:49.516Z,44.15
2023-02-06T00:33:49.446Z,45.28
2023-02-06T00:34:49.415Z,45.28
2023-02-06T00:35:49.406Z,42.06
2023-02-06T00:36:49.395Z,40.44
2023-02-06T00:37:49.389Z,40.93
2023-02-06T00:38:49.383Z,39.16
2023-02-06T00:39:49.376Z,39.64
2023-02-06T00:40:49.356Z,40.44
2023-02-06T00:41:49.347Z,38.99
2023-02-06T00:42:49.333Z,59.46
2023-02-06T00:43:49.343Z,40.12
2023-02-06T00:44:49.320Z,41.25
2023-02-06T00:45:49.309Z,40.44
2023-02-06T00:46:49.294Z,39.48
2023-02-06T00:47:49.292Z,39.96
2023-02-06T00:48:49.280Z,40.77
2023-02-06T00:49:49.261Z,40.77
2023-02-06T00:50:49.248Z,40.77
2023-02-06T00:51:49.245Z,40.77
2023-02-06T00:52:49.225Z,42.70
2023-02-06T00:53:51.114Z,40.93
2023-02-06T00:54:49.208Z,40.12
2023-02-06T00:55:49.200Z,40.28
2023-02-06T00:56:49.187Z,40.61
2023-02-06T00:57:49.175Z,39.32
2023-02-06T00:58:49.182Z,40.77
2023-02-06T00:59:49.162Z,39.80
2023-02-06T01:00:49.148Z,42.06
2023-02-06T01:01:49.214Z,39.96
2023-02-06T01:02:49.204Z,40.12
2023-02-06T01:03:49.127Z,39.96
2023-02-06T01:04:49.099Z,40.61
2023-02-06T01:05:49.093Z,39.96
2023-02-06T01:06:49.075Z,40.93
2023-02-06T01:07:49.069Z,40.28
2023-02-06T01:08:49.064Z,41.73
2023-02-06T01:09:49.047Z,41.09
2023-02-06T01:10:49.037Z,43.83
2023-02-06T01:11:49.022Z,39.64
2023-02-06T01:12:49.029Z,40.77
2023-02-06T01:13:49.018Z,44.15
2023-02-06T01:14:48.989Z,40.44
2023-02-06T01:15:50.985Z,42.06
2023-02-06T01:16:48.971Z,38.99
2023-02-06T01:17:48.959Z,39.80
2023-02-06T01:18:48.963Z,39.48
2023-02-06T01:19:48.942Z,39.80
2023-02-06T01:20:48.926Z,40.28
2023-02-06T01:21:48.921Z,39.96
2023-02-06T01:22:48.907Z,40.93
2023-02-06T01:23:48.907Z,40.12
2023-02-06T01:24:48.884Z,39.96
2023-02-06T01:25:48.879Z,39.64
2023-02-06T01:26:48.863Z,42.22
2023-02-06T01:27:48.885Z,38.83
2023-02-06T01:28:48.857Z,39.80
2023-02-06T01:29:48.844Z,40.61
2023-02-06T01:30:48.850Z,40.44
2023-02-06T01:31:48.834Z,40.44
2023-02-06T01:32:48.807Z,40.28
2023-02-06T01:33:49.928Z,40.61
2023-02-06T01:34:49.906Z,40.77
2023-02-06T01:35:49.902Z,40.61
2023-02-06T01:36:49.876Z,59.62
2023-02-06T01:37:49.874Z,41.57
2023-02-06T01:38:49.885Z,40.61
2023-02-06T01:39:49.849Z,40.12
2023-02-06T01:40:49.835Z,41.73
2023-02-06T01:41:49.833Z,40.61
2023-02-06T01:42:49.821Z,42.38
2023-02-06T01:43:49.832Z,42.38
2023-02-06T01:44:49.817Z,43.18
2023-02-06T01:45:49.803Z,42.22
2023-02-06T01:46:49.810Z,42.54
2023-02-06T01:47:49.775Z,42.86
2023-02-06T01:48:49.769Z,41.89
2023-02-06T01:49:49.762Z,41.41
2023-02-06T01:50:49.763Z,41.57
2023-02-06T01:51:49.733Z,43.51
2023-02-06T01:52:49.728Z,41.25
2023-02-06T01:53:49.713Z,40.93
2023-02-06T01:54:49.713Z,42.06
2023-02-06T01:55:49.704Z,43.83
2023-02-06T01:56:49.681Z,42.22
2023-02-06T01:57:49.667Z,42.86
2023-02-06T01:58:49.656Z,44.15
2023-02-06T01:59:49.653Z,43.02
2023-02-06T02:00:49.751Z,42.22
2023-02-06T02:01:49.688Z,41.89
2023-02-06T02:02:49.621Z,44.47
2023-02-06T02:03:49.601Z,43.34
2023-02-06T02:04:49.599Z,45.60
2023-02-06T02:05:49.580Z,66.55
2023-02-06T02:06:49.577Z,48.02
2023-02-06T02:07:49.570Z,48.82
2023-02-06T02:08:49.547Z,45.76
2023-02-06T02:09:49.549Z,70.25
2023-02-06T02:10:49.542Z,61.71
2023-02-06T02:11:49.521Z,45.28
2023-02-06T02:12:49.527Z,44.31
2023-02-06T02:13:49.514Z,46.25
2023-02-06T02:14:49.518Z,43.83
2023-02-06T02:15:49.494Z,43.02
2023-02-06T02:16:49.474Z,43.67
2023-02-06T02:17:49.466Z,45.92
2023-02-06T02:18:49.452Z,44.63
2023-02-06T02:19:49.467Z,61.39
2023-02-06T02:20:49.446Z,44.96
2023-02-06T02:21:49.433Z,44.47
2023-02-06T02:22:49.423Z,46.41
2023-02-06T02:23:49.424Z,45.28
2023-02-06T02:24:49.439Z,47.05
2023-02-06T02:25:49.385Z,44.15
2023-02-06T02:26:49.376Z,42.38
2023-02-06T02:27:49.394Z,42.38
2023-02-06T02:28:49.354Z,43.67
2023-02-06T02:29:49.354Z,42.06
2023-02-06T02:30:49.333Z,60.59
2023-02-06T02:31:49.381Z,46.25
2023-02-06T02:32:49.313Z,42.38
2023-02-06T02:33:49.314Z,43.18
2023-02-06T02:34:49.327Z,42.06
2023-02-06T02:35:49.279Z,42.54
2023-02-06T02:36:49.270Z,39.96
2023-02-06T02:37:49.263Z,41.57
2023-02-06T02:38:49.254Z,40.93
2023-02-06T02:39:49.245Z,61.71
2023-02-06T02:40:49.239Z,43.67
2023-02-06T02:41:49.222Z,43.67
2023-02-06T02:42:49.201Z,61.39
2023-02-06T02:43:49.200Z,54.95
2023-02-06T02:44:49.193Z,42.38
2023-02-06T02:45:49.200Z,48.98
2023-02-06T02:46:49.169Z,59.46
2023-02-06T02:47:49.161Z,42.22
2023-02-06T02:48:49.145Z,43.02
2023-02-06T02:49:49.127Z,42.38
2023-02-06T02:50:49.121Z,42.06
2023-02-06T02:51:49.104Z,44.31
2023-02-06T02:52:49.094Z,43.67
2023-02-06T02:53:49.083Z,45.28
2023-02-06T02:54:49.083Z,45.76
2023-02-06T02:55:49.076Z,45.12
2023-02-06T02:56:49.047Z,43.51
2023-02-06T02:57:49.050Z,46.73
2023-02-06T02:58:49.038Z,45.44
2023-02-06T02:59:49.040Z,47.05
2023-02-06T03:00:49.048Z,44.79
2023-02-06T03:01:49.041Z,43.34
2023-02-06T03:02:48.994Z,60.26
2023-02-06T03:03:48.973Z,46.25
2023-02-06T03:04:48.966Z,46.25
2023-02-06T03:05:48.969Z,47.37
2023-02-06T03:06:48.938Z,43.34
2023-02-06T03:07:48.939Z,45.28
2023-02-06T03:08:48.920Z,59.78
2023-02-06T03:09:48.922Z,55.43
2023-02-06T03:10:48.912Z,43.18
2023-02-06T03:11:48.889Z,47.37
2023-02-06T03:12:48.880Z,61.39
2023-02-06T03:13:48.874Z,49.31
2023-02-06T03:14:48.851Z,58.01
2023-02-06T03:15:48.872Z,42.38
2023-02-06T03:16:48.958Z,43.99
2023-02-06T03:17:48.825Z,45.28
2023-02-06T03:18:48.817Z,45.28
2023-02-06T03:19:48.820Z,48.34
2023-02-06T03:20:48.824Z,50.43
2023-02-06T03:21:48.787Z,46.25
2023-02-06T03:22:48.797Z,44.79
2023-02-06T03:23:48.768Z,42.70
2023-02-06T03:24:48.770Z,45.76
2023-02-06T03:25:48.752Z,45.28
2023-02-06T03:26:48.733Z,46.89
2023-02-06T03:27:48.745Z,45.12
2023-02-06T03:28:48.721Z,61.07
2023-02-06T03:29:48.727Z,56.24
2023-02-06T03:30:48.775Z,45.76
2023-02-06T03:31:48.730Z,46.73
2023-02-06T03:32:48.683Z,46.08
2023-02-06T03:33:48.672Z,63.00
2023-02-06T03:34:48.660Z,45.76
2023-02-06T03:35:48.656Z,58.01
2023-02-06T03:36:48.645Z,46.41
2023-02-06T03:37:48.619Z,47.86
2023-02-06T03:38:48.619Z,46.73
2023-02-06T03:39:48.605Z,45.28
2023-02-06T03:40:49.606Z,59.46
2023-02-06T03:41:48.594Z,46.08
2023-02-06T03:42:48.574Z,48.34
2023-02-06T03:43:48.710Z,49.31
2023-02-06T03:44:48.563Z,48.18
2023-02-06T03:45:48.595Z,48.98
2023-02-06T03:46:48.534Z,48.34
2023-02-06T03:47:48.524Z,61.71
2023-02-06T03:48:48.532Z,50.92
2023-02-06T03:49:48.495Z,46.41
2023-02-06T03:50:48.509Z,60.75
2023-02-06T03:51:48.480Z,60.26
2023-02-06T03:52:48.472Z,50.92
2023-02-06T03:53:48.468Z,44.96
2023-02-06T03:54:48.458Z,45.60
2023-02-06T03:55:48.450Z,45.76
2023-02-06T03:56:48.427Z,47.86
2023-02-06T03:57:48.422Z,46.25
2023-02-06T03:58:48.407Z,47.05
2023-02-06T03:59:48.395Z,47.05
2023-02-06T04:00:48.409Z,62.04
2023-02-06T04:01:48.380Z,62.36
2023-02-06T04:02:48.390Z,46.73
2023-02-06T04:03:48.360Z,45.92
2023-02-06T04:04:48.353Z,45.92
2023-02-06T04:05:48.378Z,46.89
2023-02-06T04:06:48.336Z,58.81
2023-02-06T04:07:48.328Z,48.18
2023-02-06T04:08:48.317Z,59.46
2023-02-06T04:09:48.299Z,59.30
2023-02-06T04:10:48.315Z,44.47
2023-02-06T04:11:48.274Z,46.25
2023-02-06T04:12:48.262Z,61.23
2023-02-06T04:13:48.272Z,60.26
2023-02-06T04:14:48.247Z,47.70
2023-02-06T04:15:48.247Z,63.33
2023-02-06T04:16:48.294Z,62.20
2023-02-06T04:17:59.237Z,61.23
2023-02-06T04:18:50.209Z,60.26
2023-02-06T04:19:48.198Z,61.07
2023-02-06T04:20:48.193Z,62.04
2023-02-06T04:21:48.202Z,62.36
2023-02-06T04:22:48.168Z,61.39
2023-02-06T04:23:48.157Z,60.75
2023-02-06T04:24:48.153Z,60.91
2023-02-06T04:25:48.134Z,60.26
2023-02-06T04:26:48.137Z,45.76
2023-02-06T04:27:48.148Z,58.81
2023-02-06T04:28:48.104Z,51.24
2023-02-06T04:29:48.099Z,48.02
2023-02-06T04:30:48.099Z,58.17
2023-02-06T04:31:48.086Z,56.72
2023-02-06T04:32:48.066Z,60.75
2023-02-06T04:33:48.051Z,58.01
2023-02-06T04:34:48.043Z,58.49
2023-02-06T04:35:48.026Z,45.12
2023-02-06T04:36:48.030Z,62.20
2023-02-06T04:37:48.008Z,67.84
2023-02-06T04:38:48.002Z,62.68
2023-02-06T04:39:48.001Z,63.33
2023-02-06T04:40:47.979Z,65.74
2023-02-06T04:41:47.977Z,59.78
2023-02-06T04:42:47.957Z,47.70
2023-02-06T04:43:47.967Z,63.49
2023-02-06T04:44:47.948Z,60.59
2023-02-06T04:45:47.944Z,48.34
2023-02-06T04:46:47.938Z,46.41
2023-02-06T04:47:47.934Z,60.75
2023-02-06T04:48:47.907Z,45.28
2023-02-06T04:49:47.902Z,44.31
2023-02-06T04:50:47.877Z,45.12
2023-02-06T04:51:47.889Z,58.65
2023-02-06T04:52:47.870Z,49.95
2023-02-06T04:53:47.849Z,60.75
2023-02-06T04:54:47.840Z,55.91
2023-02-06T04:55:47.824Z,54.14
2023-02-06T04:56:47.840Z,59.78
2023-02-06T04:57:47.816Z,45.76
2023-02-06T04:58:47.797Z,61.87
2023-02-06T04:59:48.788Z,63.97
2023-02-06T05:00:47.770Z,65.10
2023-02-06T05:01:47.827Z,45.92
2023-02-06T05:02:47.807Z,46.25
2023-02-06T05:03:47.738Z,46.57
2023-02-06T05:04:47.732Z,63.16
2023-02-06T05:05:47.723Z,64.13
2023-02-06T05:06:47.728Z,63.16
2023-02-06T05:07:47.711Z,50.60
2023-02-06T05:08:47.705Z,59.94
2023-02-06T05:09:47.697Z,61.55
2023-02-06T05:10:47.674Z,51.24
2023-02-06T05:11:47.678Z,66.23
2023-02-06T05:12:47.658Z,59.62
2023-02-06T05:13:47.632Z,60.26
2023-02-06T05:14:47.646Z,60.26
2023-02-06T05:15:47.643Z,46.08
2023-02-06T05:16:47.597Z,58.17
2023-02-06T05:17:48.616Z,60.59
2023-02-06T05:18:47.581Z,57.69
2023-02-06T05:19:47.580Z,62.84
2023-02-06T05:20:47.565Z,58.81
2023-02-06T05:21:47.565Z,65.74
2023-02-06T05:22:47.562Z,54.14
2023-02-06T05:23:47.540Z,62.52
2023-02-06T05:24:47.547Z,49.63
2023-02-06T05:25:47.502Z,46.25
2023-02-06T05:26:48.512Z,46.25
2023-02-06T05:27:47.549Z,61.23
2023-02-06T05:28:47.486Z,48.66
2023-02-06T05:29:47.472Z,63.81
2023-02-06T05:30:47.607Z,64.29
2023-02-06T05:31:47.511Z,61.87
2023-02-06T05:32:47.458Z,56.72
2023-02-06T05:33:47.436Z,63.33
2023-02-06T05:34:47.429Z,48.98
2023-02-06T05:35:47.424Z,57.52
2023-02-06T05:36:47.418Z,65.10
2023-02-06T05:37:47.402Z,60.26
2023-02-06T05:38:47.399Z,61.71
2023-02-06T05:39:47.378Z,62.04
2023-02-06T05:40:47.380Z,61.23
2023-02-06T05:41:47.349Z,47.21
2023-02-06T05:42:48.363Z,62.20
2023-02-06T05:43:47.341Z,60.26
2023-02-06T05:44:47.338Z,64.94
2023-02-06T05:45:47.318Z,60.26
2023-02-06T05:46:47.302Z,66.87
2023-02-06T05:47:47.302Z,63.16
2023-02-06T05:48:47.287Z,60.59
2023-02-06T05:49:47.271Z,46.57
2023-02-06T05:50:47.263Z,63.65
2023-02-06T05:51:47.257Z,61.23
2023-02-06T05:52:47.256Z,64.78
2023-02-06T05:53:47.234Z,58.49
2023-02-06T05:54:48.223Z,61.07
2023-02-06T05:55:47.224Z,66.55
2023-02-06T05:56:47.206Z,61.23
2023-02-06T05:57:47.236Z,62.20
2023-02-06T05:58:47.191Z,45.60
2023-02-06T05:59:47.189Z,60.26
2023-02-06T06:00:47.156Z,46.25
2023-02-06T06:01:47.161Z,60.59
2023-02-06T06:02:47.187Z,61.23
2023-02-06T06:03:47.226Z,59.30
2023-02-06T06:04:47.218Z,58.97
2023-02-06T06:05:47.136Z,59.94
2023-02-06T06:06:47.113Z,61.71
2023-02-06T06:07:47.117Z,61.87
2023-02-06T06:08:47.115Z,60.26
2023-02-06T06:09:47.091Z,65.10
2023-02-06T06:10:47.071Z,62.52
2023-02-06T06:11:47.069Z,62.36
2023-02-06T06:12:47.059Z,59.94
2023-02-06T06:13:47.048Z,61.39
2023-02-06T06:14:47.116Z,63.81
2023-02-06T06:15:47.073Z,64.29
2023-02-06T06:16:47.030Z,69.93
2023-02-06T06:17:47.047Z,77.50
2023-02-06T06:18:47.075Z,69.29
2023-02-06T06:19:47.037Z,48.50
2023-02-06T06:20:47.638Z,58.65
2023-02-06T06:21:47.003Z,59.62
2023-02-06T06:22:47.044Z,63.49
2023-02-06T06:23:46.996Z,68.80
2023-02-06T06:24:46.965Z,66.39
2023-02-06T06:25:46.957Z,65.42
2023-02-06T06:26:47.915Z,58.17
2023-02-06T06:27:46.976Z,62.20
2023-02-06T06:28:46.939Z,59.94
2023-02-06T06:29:46.908Z,60.42
2023-02-06T06:30:46.935Z,63.33
2023-02-06T06:31:46.900Z,64.94
2023-02-06T06:32:46.872Z,64.78
2023-02-06T06:33:47.884Z,53.66
2023-02-06T06:34:46.873Z,64.94
2023-02-06T06:35:46.904Z,61.71
2023-02-06T06:36:46.846Z,63.00
2023-02-06T06:37:46.839Z,60.42
2023-02-06T06:38:46.878Z,58.97
2023-02-06T06:39:46.843Z,64.45
2023-02-06T06:40:46.802Z,64.61
2023-02-06T06:41:46.816Z,64.45
2023-02-06T06:42:46.807Z,66.06
2023-02-06T06:43:46.757Z,65.90
2023-02-06T06:44:46.763Z,64.61
2023-02-06T06:45:46.794Z,67.03
2023-02-06T06:46:46.855Z,66.71
2023-02-06T06:47:46.740Z,63.81
2023-02-06T06:48:46.757Z,61.23
2023-02-06T06:49:46.786Z,60.59
2023-02-06T06:50:46.717Z,66.55
2023-02-06T06:51:46.718Z,61.23
2023-02-06T06:52:46.722Z,64.61
2023-02-06T06:53:46.741Z,63.16
2023-02-06T06:54:47.687Z,49.15
2023-02-06T06:55:46.667Z,62.52
2023-02-06T06:56:46.635Z,60.26
2023-02-06T06:57:46.672Z,63.16
2023-02-06T06:58:46.655Z,59.62
2023-02-06T06:59:46.650Z,63.97
2023-02-06T07:00:46.665Z,64.78
2023-02-06T07:01:46.610Z,52.85
2023-02-06T07:02:46.623Z,66.06
2023-02-06T07:03:46.600Z,61.71
2023-02-06T07:04:46.540Z,61.55
2023-02-06T07:05:46.561Z,64.29
2023-02-06T07:06:47.571Z,56.88
2023-02-06T07:07:46.560Z,58.33
2023-02-06T07:08:46.561Z,68.64
2023-02-06T07:09:46.529Z,66.23
2023-02-06T07:10:46.532Z,48.66
2023-02-06T07:11:46.529Z,71.06
2023-02-06T07:12:46.509Z,66.23
2023-02-06T07:13:46.504Z,53.50
2023-02-06T07:14:46.495Z,64.94
2023-02-06T07:15:46.476Z,63.81
2023-02-06T07:16:46.490Z,51.72
2023-02-06T07:17:46.429Z,63.49
2023-02-06T07:18:46.471Z,62.68
2023-02-06T07:19:46.419Z,60.75
2023-02-06T07:20:46.434Z,58.65
2023-02-06T07:21:46.416Z,67.03
2023-02-06T07:22:46.421Z,64.61
2023-02-06T07:23:46.420Z,49.95
2023-02-06T07:24:46.414Z,64.13
2023-02-06T07:25:46.405Z,61.07
2023-02-06T07:26:46.412Z,64.94
2023-02-06T07:27:46.368Z,61.07
2023-02-06T07:28:46.365Z,65.74
2023-02-06T07:29:46.368Z,65.42
2023-02-06T07:30:46.422Z,73.96
2023-02-06T07:31:46.456Z,66.71
2023-02-06T07:32:46.330Z,61.71
2023-02-06T07:33:46.303Z,51.72
2023-02-06T07:34:46.313Z,60.75
2023-02-06T07:35:46.271Z,60.75
2023-02-06T07:36:46.286Z,64.45
2023-02-06T07:37:46.298Z,61.07
2023-02-06T07:38:46.267Z,65.90
2023-02-06T07:39:46.240Z,53.82
2023-02-06T07:40:46.294Z,68.16
2023-02-06T07:41:46.234Z,64.45
2023-02-06T07:42:46.208Z,62.52
2023-02-06T07:43:46.220Z,65.42
2023-02-06T07:44:46.175Z,52.05
2023-02-06T07:45:46.216Z,65.10
2023-02-06T07:46:46.161Z,65.10
2023-02-06T07:47:46.158Z,59.94
2023-02-06T07:48:46.174Z,61.55
2023-02-06T07:49:46.160Z,63.65
2023-02-06T07:50:46.172Z,61.55
2023-02-06T07:51:46.111Z,50.60
2023-02-06T07:52:46.102Z,49.95
2023-02-06T07:53:46.088Z,62.84
2023-02-06T07:54:47.093Z,64.13
2023-02-06T07:55:46.092Z,50.92
2023-02-06T07:56:46.104Z,61.39
2023-02-06T07:57:46.074Z,59.14
2023-02-06T07:58:46.111Z,62.04
2023-02-06T07:59:46.064Z,62.04
2023-02-06T08:00:46.053Z,60.59
2023-02-06T08:01:46.097Z,51.72
2023-02-06T08:02:46.021Z,46.89
2023-02-06T08:03:46.025Z,64.13
2023-02-06T08:04:46.041Z,67.51
2023-02-06T08:05:45.984Z,47.86
2023-02-06T08:06:46.012Z,63.00
2023-02-06T08:07:45.956Z,63.33
2023-02-06T08:08:45.967Z,60.91
2023-02-06T08:09:45.933Z,70.09
2023-02-06T08:10:45.930Z,65.90
2023-02-06T08:11:45.901Z,61.71
2023-02-06T08:12:45.908Z,62.36
2023-02-06T08:13:45.864Z,60.10
2023-02-06T08:14:45.970Z,68.64
2023-02-06T08:15:45.868Z,61.23
2023-02-06T08:16:45.901Z,60.75
2023-02-06T08:17:45.876Z,61.07
2023-02-06T08:18:45.819Z,52.53
2023-02-06T08:19:45.839Z,61.71
2023-02-06T08:20:45.837Z,61.39
2023-02-06T08:21:45.841Z,53.66
2023-02-06T08:22:45.820Z,60.10
2023-02-06T08:23:45.884Z,52.53
2023-02-06T08:24:45.821Z,62.36
2023-02-06T08:25:45.753Z,60.91
2023-02-06T08:26:45.739Z,65.10
2023-02-06T08:27:45.803Z,66.39
2023-02-06T08:28:45.771Z,63.65
2023-02-06T08:29:45.746Z,62.04
2023-02-06T08:30:45.801Z,49.95
2023-02-06T08:31:45.814Z,60.91
2023-02-06T08:32:45.711Z,60.42
2023-02-06T08:33:45.689Z,45.92
2023-02-06T08:34:45.708Z,68.96
2023-02-06T08:35:45.692Z,65.90
2023-02-06T08:36:45.656Z,44.96
2023-02-06T08:37:45.673Z,60.75
2023-02-06T08:38:46.739Z,66.87
2023-02-06T08:39:46.634Z,64.13
2023-02-06T08:40:45.625Z,62.52
2023-02-06T08:41:45.621Z,63.81
2023-02-06T08:42:45.653Z,63.65
2023-02-06T08:43:45.604Z,61.71
2023-02-06T08:44:45.571Z,67.03
2023-02-06T08:45:45.642Z,63.00
2023-02-06T08:46:45.598Z,62.04
2023-02-06T08:47:45.582Z,62.68
2023-02-06T08:48:45.596Z,68.48
2023-02-06T08:49:45.557Z,64.78
2023-02-06T08:50:48.508Z,61.71
2023-02-06T08:51:45.559Z,58.97
2023-02-06T08:52:45.529Z,61.87
2023-02-06T08:53:45.488Z,62.52
2023-02-06T08:54:45.516Z,61.23
2023-02-06T08:55:45.494Z,64.45
2023-02-06T08:56:45.537Z,61.23
2023-02-06T08:57:45.476Z,65.58
2023-02-06T08:58:45.459Z,66.06
2023-02-06T08:59:45.598Z,61.87
2023-02-06T09:00:45.423Z,62.36
2023-02-06T09:01:45.621Z,64.29
2023-02-06T09:06:10.462Z,61.23
2023-02-06T09:07:09.295Z,61.39
2023-02-06T10:53:38.511Z,60.26
2023-02-06T10:54:38.498Z,64.78
2023-02-06T10:55:38.493Z,60.26
2023-02-06T10:56:38.524Z,59.14
2023-02-06T10:57:38.471Z,60.42
2023-02-06T10:58:38.462Z,60.42
2023-02-06T10:59:38.423Z,59.78
2023-02-06T11:00:38.867Z,58.65
2023-02-06T11:01:38.602Z,63.16
2023-02-06T11:02:38.398Z,61.23
2023-02-06T11:03:39.840Z,62.04
2023-02-06T11:04:38.415Z,61.87
2023-02-06T11:05:38.870Z,61.39
2023-02-06T11:06:38.381Z,61.71
2023-02-06T11:07:38.356Z,57.04
2023-02-06T11:08:38.341Z,59.78
2023-02-06T11:09:38.342Z,62.68
2023-02-06T11:10:38.789Z,63.33
2023-02-06T11:11:38.309Z,58.65
2023-02-06T11:12:38.400Z,59.46
2023-02-06T11:13:38.309Z,41.89
2023-02-06T11:15:40.138Z,60.10
2023-02-06T11:16:38.295Z,60.59
2023-02-06T11:17:38.227Z,62.04
2023-02-06T11:18:38.206Z,65.58
2023-02-06T11:19:38.198Z,59.46
2023-02-06T11:20:38.488Z,61.23
2023-02-06T11:21:38.170Z,61.23
2023-02-06T11:22:51.042Z,58.97
2023-02-06T11:23:39.153Z,58.81
2023-02-06T11:24:38.150Z,57.20
2023-02-06T11:25:38.498Z,60.26
2023-02-06T11:26:38.141Z,60.26
2023-02-06T11:27:38.122Z,62.20
2023-02-06T11:28:38.104Z,61.39
2023-02-06T11:29:38.096Z,60.42
2023-02-06T11:30:38.465Z,65.90
2023-02-06T11:31:38.286Z,67.68
2023-02-06T11:32:38.073Z,65.90
2023-02-06T11:33:38.056Z,63.16
2023-02-06T11:34:38.039Z,54.30
2023-02-06T11:35:38.431Z,61.39
2023-02-06T11:36:38.011Z,53.98
2023-02-06T11:37:38.030Z,57.20
2023-02-06T11:38:37.990Z,67.51
2023-02-06T11:39:37.995Z,60.42
2023-02-06T11:40:38.468Z,62.36
2023-02-06T11:41:37.971Z,53.17
2023-02-06T11:42:37.983Z,63.97
2023-02-06T11:43:37.973Z,58.01
2023-02-06T11:44:37.934Z,39.96
2023-02-06T11:45:38.235Z,62.20
2023-02-06T11:46:37.915Z,65.58
2023-02-06T11:47:38.288Z,60.26
2023-02-06T11:48:37.900Z,62.84
2023-02-06T11:49:37.898Z,66.06
2023-02-06T11:50:38.192Z,63.97
2023-02-06T11:51:37.862Z,61.23
2023-02-06T11:52:37.863Z,56.56
2023-02-06T11:53:37.899Z,54.30
2023-02-06T11:54:37.829Z,59.94
2023-02-06T11:55:38.111Z,45.28
2023-02-06T11:56:37.806Z,60.59
2023-02-06T11:57:37.815Z,58.81
2023-02-06T11:58:37.791Z,59.30
2023-02-06T11:59:37.781Z,63.16
2023-02-06T12:00:37.767Z,64.78
2023-02-06T12:01:37.779Z,60.26
2023-02-06T12:02:37.788Z,40.93
2023-02-06T12:03:37.832Z,59.30
2023-02-06T12:04:37.736Z,63.33
2023-02-06T12:05:38.175Z,62.20
2023-02-06T12:06:37.710Z,59.94
2023-02-06T12:07:37.736Z,61.23
2023-02-06T12:08:37.690Z,45.76
2023-02-06T12:09:37.679Z,62.20
2023-02-06T12:10:37.672Z,46.25
2023-02-06T12:11:37.669Z,54.95
2023-02-06T12:12:37.671Z,66.55
2023-02-06T12:13:37.646Z,56.07
2023-02-06T12:14:37.627Z,61.71
2023-02-06T12:15:46.644Z,64.78
2023-02-06T12:16:38.649Z,60.10
2023-02-06T12:17:37.603Z,62.04
2023-02-06T12:18:37.613Z,61.55
2023-02-06T12:19:37.579Z,58.81
2023-02-06T12:20:37.577Z,57.52
2023-02-06T12:21:37.556Z,64.61
2023-02-06T12:22:37.545Z,60.59
2023-02-06T12:23:37.555Z,60.91
2023-02-06T12:24:37.560Z,61.23
2023-02-06T12:25:37.859Z,54.62
2023-02-06T12:26:37.505Z,59.78
2023-02-06T12:27:39.276Z,69.77
2023-02-06T12:28:37.501Z,60.10
2023-02-06T12:29:37.501Z,63.49
2023-02-06T12:30:37.561Z,55.59
2023-02-06T12:31:37.598Z,62.84
2023-02-06T12:32:37.437Z,58.33
2023-02-06T12:33:37.462Z,63.16
2023-02-06T12:34:37.429Z,60.59
2023-02-06T12:35:37.714Z,57.20
2023-02-06T12:36:37.397Z,61.71
2023-02-06T12:37:37.386Z,60.59
2023-02-06T12:38:37.388Z,61.71
2023-02-06T12:39:37.365Z,47.05
2023-02-06T12:40:37.348Z,60.59
2023-02-06T12:41:37.343Z,59.46
2023-02-06T12:42:37.340Z,58.97
2023-02-06T12:43:37.334Z,59.78
2023-02-06T12:44:37.309Z,66.71
2023-02-06T12:45:37.617Z,59.62
2023-02-06T12:46:37.295Z,67.03
2023-02-06T12:47:37.294Z,60.10
2023-02-06T12:48:37.294Z,60.42
2023-02-06T12:49:37.256Z,57.69
2023-02-06T12:50:37.242Z,62.68
2023-02-06T12:51:37.231Z,60.42
2023-02-06T12:52:37.231Z,59.14
2023-02-06T12:53:37.249Z,57.52
2023-02-06T12:54:37.197Z,56.40
2023-02-06T12:55:37.556Z,68.00
2023-02-06T12:56:37.172Z,60.26
2023-02-06T12:57:37.168Z,51.88
2023-02-06T12:58:37.232Z,60.75
2023-02-06T12:59:41.623Z,60.59
2023-02-06T13:00:38.169Z,63.65
2023-02-06T13:01:37.218Z,59.46
2023-02-06T13:02:37.153Z,62.68
2023-02-06T13:03:37.132Z,60.75
2023-02-06T13:04:37.093Z,62.20
2023-02-06T13:05:37.472Z,63.97
2023-02-06T13:06:37.088Z,62.04
2023-02-06T13:07:48.818Z,62.84
2023-02-06T13:08:38.079Z,58.33
2023-02-06T13:09:37.051Z,58.49
2023-02-06T13:10:37.357Z,59.30
2023-02-06T13:11:37.032Z,59.78
2023-02-06T13:12:37.042Z,63.81
2023-02-06T13:13:37.063Z,58.65
2023-02-06T13:14:38.747Z,58.17
2023-02-06T13:15:37.368Z,60.59
2023-02-06T13:16:36.991Z,58.33
2023-02-06T13:17:36.981Z,56.72
2023-02-06T13:18:37.008Z,61.39
2023-02-06T13:19:36.960Z,58.33
2023-02-06T13:20:36.943Z,60.42
2023-02-06T13:21:36.939Z,62.04
2023-02-06T13:22:36.916Z,61.71
2023-02-06T13:23:36.923Z,59.94
2023-02-06T13:24:36.911Z,62.84
2023-02-06T13:25:37.243Z,59.46
2023-02-06T13:26:36.878Z,57.85
2023-02-06T13:27:36.862Z,59.78
2023-02-06T13:28:36.869Z,59.46
2023-02-06T13:29:36.847Z,56.40
2023-02-06T13:30:36.892Z,64.29
2023-02-06T13:31:36.858Z,64.13
2023-02-06T13:32:38.070Z,55.75
2023-02-06T13:33:37.091Z,61.87
2023-02-06T13:34:36.820Z,58.33
2023-02-06T13:35:37.085Z,63.16
2023-02-06T13:36:36.770Z,58.97
2023-02-06T13:37:36.764Z,62.52
2023-02-06T13:38:36.770Z,56.72
2023-02-06T13:39:36.742Z,59.14
2023-02-06T13:40:36.739Z,62.68
2023-02-06T13:41:36.734Z,47.37
2023-02-06T13:42:36.719Z,59.62
2023-02-06T13:43:36.734Z,60.59
2023-02-06T13:44:36.696Z,60.26
2023-02-06T13:45:37.003Z,63.00
2023-02-06T13:46:36.694Z,58.01
2023-02-06T13:47:36.656Z,59.94
2023-02-06T13:48:36.687Z,60.26
2023-02-06T13:49:36.638Z,49.95
2023-02-06T13:50:36.635Z,55.91
2023-02-06T13:51:36.617Z,55.11
2023-02-06T13:52:36.620Z,55.11
2023-02-06T13:53:36.616Z,58.81
2023-02-06T13:54:36.605Z,57.85
2023-02-06T13:55:36.845Z,59.94
2023-02-06T13:56:36.584Z,60.26
2023-02-06T13:57:36.557Z,56.24
2023-02-06T13:58:36.553Z,59.94
2023-02-06T13:59:36.562Z,55.59
2023-02-06T14:00:36.528Z,56.56
2023-02-06T14:01:36.549Z,48.50
2023-02-06T14:02:36.534Z,60.26
2023-02-06T14:03:36.503Z,65.10
2023-02-06T14:04:36.629Z,55.27
2023-02-06T14:05:36.955Z,53.66
2023-02-06T14:06:36.525Z,62.04
2023-02-06T14:10:00.160Z,44.63
2023-02-06T14:10:37.437Z,58.49
2023-02-06T14:11:36.419Z,61.71
2023-02-06T14:12:36.416Z,58.33
2023-02-06T14:13:36.499Z,62.84
2023-02-06T14:14:36.466Z,63.16
2023-02-06T14:15:36.838Z,57.20
2023-02-06T14:16:36.384Z,47.21
2023-02-06T14:17:36.343Z,58.17
2023-02-06T14:18:36.345Z,62.68
2023-02-06T14:19:36.335Z,62.36
2023-02-06T14:20:36.320Z,60.26
2023-02-06T14:21:36.297Z,60.59
2023-02-06T14:22:36.295Z,58.49
2023-02-06T14:23:36.294Z,55.59
2023-02-06T14:24:36.303Z,59.94
2023-02-06T14:25:36.556Z,62.52
2023-02-06T14:26:36.256Z,59.30
2023-02-06T14:27:36.241Z,61.23
2023-02-06T14:28:36.235Z,61.39
2023-02-06T14:29:36.233Z,60.42
2023-02-06T14:30:36.253Z,62.20
2023-02-06T14:31:36.290Z,58.49
2023-02-06T14:32:36.182Z,61.07
2023-02-06T14:33:36.259Z,61.23
2023-02-06T14:34:36.172Z,63.49
2023-02-06T14:35:36.507Z,59.78
2023-02-06T14:36:36.142Z,62.36
2023-02-06T14:37:36.128Z,61.07
2023-02-06T14:38:36.126Z,60.91
2023-02-06T14:39:36.110Z,62.36
2023-02-06T14:40:36.111Z,59.14
2023-02-06T14:41:36.080Z,62.68
2023-02-06T14:42:36.091Z,61.87
2023-02-06T14:43:36.064Z,62.84
2023-02-06T14:44:36.067Z,62.20
2023-02-06T14:45:42.112Z,59.78
2023-02-06T14:46:37.076Z,53.50